Back to top

Torrington, WY weather

Torrington Municipal Airport, Torrington, WY: 8/18/2022 04:53
Visibility10 statute milesclear sky
View 7-Day Forecast
Area Summary
Sky/CloudsSky Clear
Weather [last 24 hours]None
Pressure30.14 in.Hg (1021 hPa)
Dew Point53.1 °F (11.7 °C)
Relative Humidity86.6 %
Temperature57 °F (13.9 °C)red thermometer
Reading TimeMinimum to Maximum Temperature
6-hr ending 8/17@23:5366 °F to 86 °F (18.9 °C to 30 °C)
6-hr ending 8/17@17:5377 °F to 89.1 °F (25 °C to 31.7 °C)
6-hr ending 8/17@11:5357 °F to 77 °F (13.9 °C to 25 °C)
6-hr ending 8/17@05:5357 °F to 63 °F (13.9 °C to 17.2 °C)
24-hr ending 8/18@00:5357 °F to 89.1 °F (13.9 °C to 31.7 °C)
Wind3.45 MPH (3 KT) green arrow pointing 270 degrees
Wind FromWest (270 Degrees)
Rolling 24-hr Peak Wind33.4 MPH (29 KT) on 8/17@21:19
Rolling 24-hr Peak Wind FromEast/Northeast (060 Degrees)
Twilight Begins05:38Sunshine Yesterday
Sunrise06:08N/A
Sunset19:53
Twilight Ends20:22
METARKTOR 181053Z AUTO 27003KT 10SM CLR 14/12 A3014 RMK AO2 SLP159 T01390117
Tags: